ADDS METAR Data INFO
IDs: Format: Raw Decoded Include TAF

Data at: 1612 UTC 14 Aug 2018

KACT 141551Z 18014KT 10SM CLR 31/21 A2999 RMK AO2 RAE1453 SLP145 P0000 T03060206 $
KACT 141451Z 21015G22KT 8SM -RA CLR 29/21 A2998 RMK AO2 RAB15 SLP144 P0000 60000 T02890211 51004 $
KACT 141351Z 18012KT 10SM CLR 27/22 A2998 RMK AO2 SLP145 T02720217 $
KACT 141251Z 19012KT 10SM CLR 26/22 A2998 RMK AO2 SLP144 T02560222 $
KACT 141151Z 19013KT 10SM SCT022 SCT026 25/22 A2997 RMK AO2 SLP140 60000 T02500217 10278 20244 53005 $
KACT 141051Z AUTO 19010KT 10SM BKN019 25/22 A2996 RMK AO2 SLP136 T02500222 $
KACT 140951Z AUTO 18013KT 10SM OVC018 26/22 A2995 RMK AO2 SLP134 T02560222 $
KACT 140924Z AUTO 19013KT 10SM BKN017 26/22 A2995 RMK AO2 T02560222 $
KACT 140851Z AUTO 19010KT 10SM CLR 26/22 A2996 RMK AO2 SLP135 60000 T02610222 51002 $
KACT 140751Z AUTO 18013KT 10SM CLR 26/22 A2995 RMK AO2 SLP133 T02610217 $
KACT 140651Z AUTO 18012KT 10SM CLR 27/21 A2996 RMK AO2 RAB0554E03 SLP137 P0000 T02720206 $
KACT 140551Z AUTO 18017KT 10SM CLR 28/20 A2995 RMK AO2 SLP133 60000 T02780200 10344 20278 403670233 52014 $
KACT 140451Z 17013KT 10SM CLR 29/19 A2994 RMK AO2 SLP129 T02890189 $
KACT 140351Z 17016KT 10SM CLR 30/17 A2992 RMK AO2 RAB10E31 SLP124 P0000 T03000172 $
KACT 140251Z 17016KT 10SM CLR 31/18 A2991 RMK AO2 SLP120 60000 T03060178 53003 $
KACT 140151Z 16011KT 10SM CLR 32/17 A2990 RMK AO2 SLP118 T03170172 $
KACT 140051Z 17010KT 10SM SCT080 33/18 A2990 RMK AO2 RAE2359 SLP118 P0000 T03280178 $
KACT 132351Z COR 19008KT 10SM CLR 34/18 A2990 RMK AO2 SLP118 P0000 60000 T03440178 10367 20333 58015 $
KACT 132251Z 18012KT 10SM -RA FEW070 34/18 A2992 RMK AO2 SLP124 P0000 T03440178 $
KACT 132151Z COR 19016G22KT 10SM SCT070 36/17 A2994 RMK AO2 RAE24B43 SLP130 P0000 T03560172 $
KACT 132051Z 17018G25KT 10SM -RA FEW065 34/18 A2995 RMK AO2 PK WND 18026/1953 RAB35 SLP133 P0000 60000 T03440183 56018 $
KACT 131951Z 18021G29KT 10SM SCT065 36/18 A2996 RMK AO2 PK WND 18029/1951 SLP136 T03610183 $
KACT 131851Z 18019G27KT 10SM FEW050 34/19 A2997 RMK AO2 PK WND 17029/1821 SLP139 T03390194 $
KACT 131751Z 17018G26KT 10SM BKN040 34/21 A3000 RMK AO2 PK WND 18027/1741 RAE47 SLP150 P0000 60000 T03390206 10339 20239 58010 $
KACT 131651Z 18018KT 10SM -RA FEW030 BKN037 BKN046 32/22 A3002 RMK AO2 RAB1559 SLP158 P0000 T03170217 $
KACT 131551Z 18016KT 10SM FEW012 SCT018 BKN024 31/23 A3003 RMK AO2 RAB1453E51 SLP162 P0000 T03060228 $
KACT 131451Z 17012KT 7SM FEW012 SCT018 BKN024 28/24 A3003 RMK AO2 SLP162 T02780239 51001 $
KACT 131434Z 18012KT 7SM BKN013 BKN022 27/24 A3003 RMK AO2 T02670244 $
KACT 131351Z 17011KT 6SM BR OVC009 26/24 A3003 RMK AO2 SLP161 T02610244 $
KACT 131251Z 16009KT 3SM BR OVC005 25/24 A3003 RMK AO2 CIG 004V009 SLP162 T02500239 $
KACT 131214Z 13006KT 3SM BR OVC005 24/23 A3003 RMK AO2 T02390233 $
KACT 131151Z 14006KT 6SM BR OVC006 24/23 A3003 RMK AO2 SLP160 70025 T02390228 10244 20233 55003 $
KACT 131051Z 13006KT 8SM OVC006 24/23 A3002 RMK AO2 SLP159 T02390228 $
KACT 131005Z AUTO 14007KT 9SM OVC007 24/22 A3002 RMK AO2 CIG 004V012 T02390222 $
KACT 130951Z AUTO 15006KT 9SM BKN008 OVC011 23/22 A3002 RMK AO2 CIG 004V010 SLP158 T02330222 $
KACT 130851Z AUTO 14005KT 10SM BKN007 OVC016 23/22 A3003 RMK AO2 SLP163 T02330222 58003 $
KACT 130830Z AUTO 13006KT 10SM BKN007 OVC018 23/22 A3003 RMK AO2 T02330222 $
KACT 130808Z AUTO 13006KT 10SM SCT006 BKN018 OVC029 23/22 A3003 RMK AO2 T02330222 $
KACT 130751Z AUTO 13007KT 10SM FEW008 BKN023 OVC033 23/22 A3004 RMK AO2 SLP164 T02330222 $
KACT 130738Z AUTO 13007KT 10SM FEW007 OVC023 23/22 A3004 RMK AO2 T02330222 $
KACT 130722Z AUTO 13007KT 10SM SCT008 OVC024 23/22 A3004 RMK AO2 T02330222 $
KACT 130701Z AUTO 12006KT 10SM BKN008 BKN012 OVC036 23/22 A3004 RMK AO2 T02330222 $
KACT 130651Z AUTO 12005KT 10SM SCT008 BKN014 OVC036 23/22 A3004 RMK AO2 SLP164 T02330222 $
KACT 130642Z AUTO 12004KT 10SM SCT008 BKN014 OVC036 23/22 A3004 RMK AO2 T02330222 $
KACT 130616Z AUTO 12005KT 10SM FEW006 SCT016 OVC034 23/22 A3004 RMK AO2 T02330222 $
KACT 130551Z AUTO 09003KT 10SM SCT034 BKN040 23/22 A3004 RMK AO2 SLP166 60003 T02330222 10233 20228 403220228 50009 $
KACT 130506Z AUTO 00000KT 10SM FEW007 OVC050 23/22 A3005 RMK AO2 T02330222 $
KACT 130451Z 06003KT 10SM OVC050 23/22 A3005 RMK AO2 SLP167 T02330222 $